sensor_id;sensor_type;location;lat;lon;timestamp;temperature;humidity
14850;DHT22;7517;48.400;11.770;2023-07-20T00:02:08;24.80;59.90
14850;DHT22;7517;48.400;11.770;2023-07-20T00:04:35;24.80;60.20
14850;DHT22;7517;48.400;11.770;2023-07-20T00:07:04;24.80;60.40
14850;DHT22;7517;48.400;11.770;2023-07-20T00:09:31;24.70;60.50
14850;DHT22;7517;48.400;11.770;2023-07-20T00:11:58;24.70;60.70
14850;DHT22;7517;48.400;11.770;2023-07-20T00:14:27;24.70;61.10
14850;DHT22;7517;48.400;11.770;2023-07-20T00:16:56;24.60;61.30
14850;DHT22;7517;48.400;11.770;2023-07-20T00:19:24;24.60;61.30
14850;DHT22;7517;48.400;11.770;2023-07-20T00:21:52;24.60;61.20
14850;DHT22;7517;48.400;11.770;2023-07-20T00:24:19;24.60;61.40
14850;DHT22;7517;48.400;11.770;2023-07-20T00:26:47;24.60;61.50
14850;DHT22;7517;48.400;11.770;2023-07-20T00:29:14;24.60;61.40
14850;DHT22;7517;48.400;11.770;2023-07-20T00:31:43;24.60;61.30
14850;DHT22;7517;48.400;11.770;2023-07-20T00:34:10;24.60;60.80
14850;DHT22;7517;48.400;11.770;2023-07-20T00:36:37;24.60;60.40
14850;DHT22;7517;48.400;11.770;2023-07-20T00:39:05;24.60;60.20
14850;DHT22;7517;48.400;11.770;2023-07-20T00:41:32;24.60;60.20
14850;DHT22;7517;48.400;11.770;2023-07-20T00:43:59;24.60;60.10
14850;DHT22;7517;48.400;11.770;2023-07-20T00:46:26;24.60;60.00
14850;DHT22;7517;48.400;11.770;2023-07-20T00:48:55;24.60;60.00
14850;DHT22;7517;48.400;11.770;2023-07-20T00:51:23;24.60;60.20
14850;DHT22;7517;48.400;11.770;2023-07-20T00:53:53;24.60;60.10
14850;DHT22;7517;48.400;11.770;2023-07-20T00:56:20;24.60;60.10
14850;DHT22;7517;48.400;11.770;2023-07-20T00:58:48;24.60;60.10
14850;DHT22;7517;48.400;11.770;2023-07-20T01:01:16;24.60;60.90
14850;DHT22;7517;48.400;11.770;2023-07-20T01:03:43;24.60;60.10
14850;DHT22;7517;48.400;11.770;2023-07-20T01:06:18;24.60;60.20
14850;DHT22;7517;48.400;11.770;2023-07-20T01:09:01;24.60;60.60
14850;DHT22;7517;48.400;11.770;2023-07-20T01:11:38;24.60;60.20
14850;DHT22;7517;48.400;11.770;2023-07-20T01:14:11;24.60;59.70
14850;DHT22;7517;48.400;11.770;2023-07-20T01:16:39;24.60;59.50
14850;DHT22;7517;48.400;11.770;2023-07-20T01:19:06;24.60;59.50
14850;DHT22;7517;48.400;11.770;2023-07-20T01:21:41;24.60;59.50
14850;DHT22;7517;48.400;11.770;2023-07-20T01:24:56;24.60;59.20
14850;DHT22;7517;48.400;11.770;2023-07-20T01:28:14;24.60;58.90
14850;DHT22;7517;48.400;11.770;2023-07-20T01:31:21;24.70;59.00
14850;DHT22;7517;48.400;11.770;2023-07-20T01:33:52;24.70;58.80
14850;DHT22;7517;48.400;11.770;2023-07-20T01:36:23;24.70;58.70
14850;DHT22;7517;48.400;11.770;2023-07-20T01:38:53;24.60;58.70
14850;DHT22;7517;48.400;11.770;2023-07-20T01:41:22;24.70;58.90
14850;DHT22;7517;48.400;11.770;2023-07-20T01:43:50;24.60;58.80
14850;DHT22;7517;48.400;11.770;2023-07-20T01:46:18;24.70;59.00
14850;DHT22;7517;48.400;11.770;2023-07-20T01:48:46;24.60;58.90
14850;DHT22;7517;48.400;11.770;2023-07-20T01:51:14;24.70;59.00
14850;DHT22;7517;48.400;11.770;2023-07-20T01:53:43;24.70;59.00
14850;DHT22;7517;48.400;11.770;2023-07-20T01:56:10;24.70;58.80
14850;DHT22;7517;48.400;11.770;2023-07-20T01:58:39;24.70;58.60
14850;DHT22;7517;48.400;11.770;2023-07-20T02:01:06;24.60;58.40
14850;DHT22;7517;48.400;11.770;2023-07-20T02:03:35;24.60;58.30
14850;DHT22;7517;48.400;11.770;2023-07-20T02:06:02;24.70;58.40
14850;DHT22;7517;48.400;11.770;2023-07-20T02:08:30;24.70;58.40
14850;DHT22;7517;48.400;11.770;2023-07-20T02:10:57;24.70;58.30
14850;DHT22;7517;48.400;11.770;2023-07-20T02:13:24;24.70;58.20
14850;DHT22;7517;48.400;11.770;2023-07-20T02:15:51;24.60;58.80
14850;DHT22;7517;48.400;11.770;2023-07-20T02:18:19;24.60;58.10
14850;DHT22;7517;48.400;11.770;2023-07-20T02:20:47;24.60;58.10
14850;DHT22;7517;48.400;11.770;2023-07-20T02:23:15;24.60;58.00
14850;DHT22;7517;48.400;11.770;2023-07-20T02:25:42;24.60;58.00
14850;DHT22;7517;48.400;11.770;2023-07-20T02:28:14;24.60;57.80
14850;DHT22;7517;48.400;11.770;2023-07-20T02:30:42;24.60;57.80
14850;DHT22;7517;48.400;11.770;2023-07-20T02:33:10;24.60;57.70
14850;DHT22;7517;48.400;11.770;2023-07-20T02:35:37;24.60;57.60
14850;DHT22;7517;48.400;11.770;2023-07-20T02:38:06;24.60;57.50
14850;DHT22;7517;48.400;11.770;2023-07-20T02:40:33;24.60;57.30
14850;DHT22;7517;48.400;11.770;2023-07-20T02:43:01;24.60;57.10
14850;DHT22;7517;48.400;11.770;2023-07-20T02:45:28;24.60;57.10
14850;DHT22;7517;48.400;11.770;2023-07-20T02:47:55;24.60;56.90
14850;DHT22;7517;48.400;11.770;2023-07-20T02:50:22;24.60;56.60
14850;DHT22;7517;48.400;11.770;2023-07-20T02:52:50;24.60;56.50
14850;DHT22;7517;48.400;11.770;2023-07-20T02:55:18;24.60;56.40
14850;DHT22;7517;48.400;11.770;2023-07-20T02:57:45;24.60;56.40
14850;DHT22;7517;48.400;11.770;2023-07-20T03:00:14;24.60;56.30
14850;DHT22;7517;48.400;11.770;2023-07-20T03:02:42;24.60;56.20
14850;DHT22;7517;48.400;11.770;2023-07-20T03:05:10;24.60;55.90
14850;DHT22;7517;48.400;11.770;2023-07-20T03:07:37;24.60;55.90
14850;DHT22;7517;48.400;11.770;2023-07-20T03:10:05;24.60;55.90
14850;DHT22;7517;48.400;11.770;2023-07-20T03:12:36;24.60;55.50
14850;DHT22;7517;48.400;11.770;2023-07-20T03:15:06;24.60;55.00
14850;DHT22;7517;48.400;11.770;2023-07-20T03:17:34;24.50;55.10
14850;DHT22;7517;48.400;11.770;2023-07-20T03:20:01;24.60;55.00
14850;DHT22;7517;48.400;11.770;2023-07-20T03:22:29;24.50;54.80
14850;DHT22;7517;48.400;11.770;2023-07-20T03:24:56;24.50;55.30
14850;DHT22;7517;48.400;11.770;2023-07-20T03:27:23;24.50;54.70
14850;DHT22;7517;48.400;11.770;2023-07-20T03:29:52;24.50;54.30
14850;DHT22;7517;48.400;11.770;2023-07-20T03:32:19;24.50;54.40
14850;DHT22;7517;48.400;11.770;2023-07-20T03:34:52;24.50;54.30
14850;DHT22;7517;48.400;11.770;2023-07-20T03:37:19;24.50;54.00
14850;DHT22;7517;48.400;11.770;2023-07-20T03:39:47;24.50;54.20
14850;DHT22;7517;48.400;11.770;2023-07-20T03:42:14;24.40;54.10
14850;DHT22;7517;48.400;11.770;2023-07-20T03:44:42;24.50;53.90
14850;DHT22;7517;48.400;11.770;2023-07-20T03:47:11;24.50;53.90
14850;DHT22;7517;48.400;11.770;2023-07-20T03:49:38;24.50;53.80
14850;DHT22;7517;48.400;11.770;2023-07-20T03:52:06;24.40;53.80
14850;DHT22;7517;48.400;11.770;2023-07-20T03:54:33;24.40;54.10
14850;DHT22;7517;48.400;11.770;2023-07-20T03:57:00;24.40;54.00
14850;DHT22;7517;48.400;11.770;2023-07-20T03:59:27;24.40;53.80
14850;DHT22;7517;48.400;11.770;2023-07-20T04:01:53;24.40;54.30
14850;DHT22;7517;48.400;11.770;2023-07-20T04:04:22;24.40;53.70
14850;DHT22;7517;48.400;11.770;2023-07-20T04:06:49;24.40;53.60
14850;DHT22;7517;48.400;11.770;2023-07-20T04:09:16;24.40;53.60
14850;DHT22;7517;48.400;11.770;2023-07-20T04:11:43;24.30;53.50
14850;DHT22;7517;48.400;11.770;2023-07-20T04:14:10;24.40;53.60
14850;DHT22;7517;48.400;11.770;2023-07-20T04:16:38;24.40;53.80
14850;DHT22;7517;48.400;11.770;2023-07-20T04:19:05;24.40;53.80
14850;DHT22;7517;48.400;11.770;2023-07-20T04:21:40;24.30;53.80
14850;DHT22;7517;48.400;11.770;2023-07-20T04:24:07;24.40;53.60
14850;DHT22;7517;48.400;11.770;2023-07-20T04:26:35;24.30;53.60
14850;DHT22;7517;48.400;11.770;2023-07-20T04:29:02;24.30;53.50
14850;DHT22;7517;48.400;11.770;2023-07-20T04:31:29;24.40;53.40
14850;DHT22;7517;48.400;11.770;2023-07-20T04:33:58;24.30;53.10
14850;DHT22;7517;48.400;11.770;2023-07-20T04:36:26;24.30;52.80
14850;DHT22;7517;48.400;11.770;2023-07-20T04:38:54;24.30;53.00
14850;DHT22;7517;48.400;11.770;2023-07-20T04:41:22;24.30;52.90
14850;DHT22;7517;48.400;11.770;2023-07-20T04:43:51;24.30;52.50
14850;DHT22;7517;48.400;11.770;2023-07-20T04:46:18;24.30;52.40
14850;DHT22;7517;48.400;11.770;2023-07-20T04:48:47;24.30;52.20
14850;DHT22;7517;48.400;11.770;2023-07-20T04:51:14;24.30;52.20
14850;DHT22;7517;48.400;11.770;2023-07-20T04:53:43;24.30;51.70
14850;DHT22;7517;48.400;11.770;2023-07-20T04:56:13;24.30;51.60
14850;DHT22;7517;48.400;11.770;2023-07-20T04:58:41;24.30;51.40
14850;DHT22;7517;48.400;11.770;2023-07-20T05:01:08;24.20;52.20
14850;DHT22;7517;48.400;11.770;2023-07-20T05:03:35;24.20;51.60
14850;DHT22;7517;48.400;11.770;2023-07-20T05:06:03;24.30;51.60
14850;DHT22;7517;48.400;11.770;2023-07-20T05:08:30;24.30;51.50
14850;DHT22;7517;48.400;11.770;2023-07-20T05:10:57;24.30;51.60
14850;DHT22;7517;48.400;11.770;2023-07-20T05:13:25;24.30;51.40
14850;DHT22;7517;48.400;11.770;2023-07-20T05:15:53;24.30;51.10
14850;DHT22;7517;48.400;11.770;2023-07-20T05:18:20;24.30;51.20
14850;DHT22;7517;48.400;11.770;2023-07-20T05:20:47;24.20;51.10
14850;DHT22;7517;48.400;11.770;2023-07-20T05:23:18;24.30;51.10
14850;DHT22;7517;48.400;11.770;2023-07-20T05:25:46;24.20;51.00
14850;DHT22;7517;48.400;11.770;2023-07-20T05:28:16;24.20;51.40
14850;DHT22;7517;48.400;11.770;2023-07-20T05:30:45;24.30;51.30
14850;DHT22;7517;48.400;11.770;2023-07-20T05:33:12;24.20;51.30
14850;DHT22;7517;48.400;11.770;2023-07-20T05:35:39;24.20;51.10
14850;DHT22;7517;48.400;11.770;2023-07-20T05:38:06;24.30;51.10
14850;DHT22;7517;48.400;11.770;2023-07-20T05:40:37;24.20;51.20
14850;DHT22;7517;48.400;11.770;2023-07-20T05:43:04;24.20;51.20
14850;DHT22;7517;48.400;11.770;2023-07-20T05:45:31;24.20;51.30
14850;DHT22;7517;48.400;11.770;2023-07-20T05:48:01;24.20;51.30
14850;DHT22;7517;48.400;11.770;2023-07-20T05:50:28;24.20;51.30
14850;DHT22;7517;48.400;11.770;2023-07-20T05:52:56;24.20;51.40
14850;DHT22;7517;48.400;11.770;2023-07-20T05:55:23;24.20;51.70
14850;DHT22;7517;48.400;11.770;2023-07-20T05:57:50;24.20;51.60
14850;DHT22;7517;48.400;11.770;2023-07-20T06:00:19;24.20;51.40
14850;DHT22;7517;48.400;11.770;2023-07-20T06:02:51;24.30;51.30
14850;DHT22;7517;48.400;11.770;2023-07-20T06:05:21;24.30;51.20
14850;DHT22;7517;48.400;11.770;2023-07-20T06:07:49;24.30;51.30
14850;DHT22;7517;48.400;11.770;2023-07-20T06:10:16;24.30;51.30
14850;DHT22;7517;48.400;11.770;2023-07-20T06:12:43;24.30;51.40
14850;DHT22;7517;48.400;11.770;2023-07-20T06:15:25;24.30;51.30
14850;DHT22;7517;48.400;11.770;2023-07-20T06:17:54;24.30;51.10
14850;DHT22;7517;48.400;11.770;2023-07-20T06:20:25;24.30;51.20
14850;DHT22;7517;48.400;11.770;2023-07-20T06:22:52;24.30;51.30
14850;DHT22;7517;48.400;11.770;2023-07-20T06:25:20;24.40;51.40
14850;DHT22;7517;48.400;11.770;2023-07-20T06:27:49;24.40;51.20
14850;DHT22;7517;48.400;11.770;2023-07-20T06:30:17;24.40;51.20
14850;DHT22;7517;48.400;11.770;2023-07-20T06:32:45;24.40;51.00
14850;DHT22;7517;48.400;11.770;2023-07-20T06:35:14;24.50;51.00
14850;DHT22;7517;48.400;11.770;2023-07-20T06:37:44;24.50;50.90
14850;DHT22;7517;48.400;11.770;2023-07-20T06:40:12;24.50;50.80
14850;DHT22;7517;48.400;11.770;2023-07-20T06:42:40;24.50;51.10
14850;DHT22;7517;48.400;11.770;2023-07-20T06:45:07;24.50;51.00
14850;DHT22;7517;48.400;11.770;2023-07-20T06:47:38;24.60;51.00
14850;DHT22;7517;48.400;11.770;2023-07-20T06:50:08;24.60;51.10
14850;DHT22;7517;48.400;11.770;2023-07-20T06:52:36;24.60;51.10
14850;DHT22;7517;48.400;11.770;2023-07-20T06:55:08;24.60;51.10
14850;DHT22;7517;48.400;11.770;2023-07-20T06:57:35;24.70;51.70
14850;DHT22;7517;48.400;11.770;2023-07-20T07:00:03;24.70;51.20
14850;DHT22;7517;48.400;11.770;2023-07-20T07:02:32;24.70;51.40
14850;DHT22;7517;48.400;11.770;2023-07-20T07:05:00;24.80;51.50
14850;DHT22;7517;48.400;11.770;2023-07-20T07:07:27;24.80;51.90
14850;DHT22;7517;48.400;11.770;2023-07-20T07:09:55;24.90;51.10
14850;DHT22;7517;48.400;11.770;2023-07-20T07:12:24;24.90;51.00
14850;DHT22;7517;48.400;11.770;2023-07-20T07:14:51;25.00;51.00
14850;DHT22;7517;48.400;11.770;2023-07-20T07:17:19;25.00;50.80
14850;DHT22;7517;48.400;11.770;2023-07-20T07:19:46;25.00;50.90
14850;DHT22;7517;48.400;11.770;2023-07-20T07:22:13;25.10;50.70
14850;DHT22;7517;48.400;11.770;2023-07-20T07:24:40;25.10;50.40
14850;DHT22;7517;48.400;11.770;2023-07-20T07:27:08;25.10;50.20
14850;DHT22;7517;48.400;11.770;2023-07-20T07:29:37;25.10;50.70
14850;DHT22;7517;48.400;11.770;2023-07-20T07:32:06;25.10;49.80
14850;DHT22;7517;48.400;11.770;2023-07-20T07:34:35;25.10;49.80
14850;DHT22;7517;48.400;11.770;2023-07-20T07:37:04;25.10;49.90
14850;DHT22;7517;48.400;11.770;2023-07-20T07:39:32;25.20;50.20
14850;DHT22;7517;48.400;11.770;2023-07-20T07:42:00;25.20;50.20
14850;DHT22;7517;48.400;11.770;2023-07-20T07:44:27;25.20;50.90
14850;DHT22;7517;48.400;11.770;2023-07-20T07:46:56;25.20;49.80
14850;DHT22;7517;48.400;11.770;2023-07-20T07:49:23;25.30;49.90
14850;DHT22;7517;48.400;11.770;2023-07-20T07:51:50;25.30;50.00
14850;DHT22;7517;48.400;11.770;2023-07-20T07:54:19;25.40;49.80
14850;DHT22;7517;48.400;11.770;2023-07-20T07:56:46;25.40;49.40
14850;DHT22;7517;48.400;11.770;2023-07-20T07:59:13;25.50;48.90
14850;DHT22;7517;48.400;11.770;2023-07-20T08:01:41;25.50;48.70
14850;DHT22;7517;48.400;11.770;2023-07-20T08:04:10;25.60;48.40
14850;DHT22;7517;48.400;11.770;2023-07-20T08:06:38;25.60;48.30
14850;DHT22;7517;48.400;11.770;2023-07-20T08:09:06;25.70;48.30
14850;DHT22;7517;48.400;11.770;2023-07-20T08:11:33;25.70;47.90
14850;DHT22;7517;48.400;11.770;2023-07-20T08:14:00;25.80;47.70
14850;DHT22;7517;48.400;11.770;2023-07-20T08:16:28;25.80;47.50
14850;DHT22;7517;48.400;11.770;2023-07-20T08:18:55;25.90;48.00
14850;DHT22;7517;48.400;11.770;2023-07-20T08:21:24;25.90;47.90
14850;DHT22;7517;48.400;11.770;2023-07-20T08:23:51;26.00;48.10
14850;DHT22;7517;48.400;11.770;2023-07-20T08:26:18;26.10;48.30
14850;DHT22;7517;48.400;11.770;2023-07-20T08:28:47;26.20;48.00
14850;DHT22;7517;48.400;11.770;2023-07-20T08:31:15;26.30;47.60
14850;DHT22;7517;48.400;11.770;2023-07-20T08:33:43;26.40;47.60
14850;DHT22;7517;48.400;11.770;2023-07-20T08:36:10;26.50;47.10
14850;DHT22;7517;48.400;11.770;2023-07-20T08:38:39;26.70;47.20
14850;DHT22;7517;48.400;11.770;2023-07-20T08:41:06;26.80;46.50
14850;DHT22;7517;48.400;11.770;2023-07-20T08:43:37;26.90;46.30
14850;DHT22;7517;48.400;11.770;2023-07-20T08:46:08;27.10;46.10
14850;DHT22;7517;48.400;11.770;2023-07-20T08:48:38;27.10;46.20
14850;DHT22;7517;48.400;11.770;2023-07-20T08:51:07;27.30;45.90
14850;DHT22;7517;48.400;11.770;2023-07-20T08:53:34;27.40;45.20
14850;DHT22;7517;48.400;11.770;2023-07-20T08:56:03;27.50;45.40
14850;DHT22;7517;48.400;11.770;2023-07-20T08:58:33;27.60;45.20
14850;DHT22;7517;48.400;11.770;2023-07-20T09:01:02;27.80;44.90
14850;DHT22;7517;48.400;11.770;2023-07-20T09:03:30;28.00;45.00
14850;DHT22;7517;48.400;11.770;2023-07-20T09:05:58;28.10;44.20
14850;DHT22;7517;48.400;11.770;2023-07-20T09:08:25;28.20;43.80
14850;DHT22;7517;48.400;11.770;2023-07-20T09:10:53;28.30;43.60
14850;DHT22;7517;48.400;11.770;2023-07-20T09:13:22;28.40;43.50
14850;DHT22;7517;48.400;11.770;2023-07-20T09:15:54;28.50;43.10
14850;DHT22;7517;48.400;11.770;2023-07-20T09:18:24;28.60;42.30
14850;DHT22;7517;48.400;11.770;2023-07-20T09:20:52;28.70;41.90
14850;DHT22;7517;48.400;11.770;2023-07-20T09:23:20;28.80;42.10
14850;DHT22;7517;48.400;11.770;2023-07-20T09:25:49;28.90;41.90
14850;DHT22;7517;48.400;11.770;2023-07-20T09:28:17;28.90;42.30
14850;DHT22;7517;48.400;11.770;2023-07-20T09:30:46;29.00;41.90
14850;DHT22;7517;48.400;11.770;2023-07-20T09:33:18;29.00;41.60
14850;DHT22;7517;48.400;11.770;2023-07-20T09:35:47;29.10;41.20
14850;DHT22;7517;48.400;11.770;2023-07-20T09:38:15;29.10;41.80
14850;DHT22;7517;48.400;11.770;2023-07-20T09:40:42;29.20;41.90
14850;DHT22;7517;48.400;11.770;2023-07-20T09:43:10;29.20;41.60
14850;DHT22;7517;48.400;11.770;2023-07-20T09:45:40;29.30;41.60
14850;DHT22;7517;48.400;11.770;2023-07-20T09:48:10;29.30;41.60
14850;DHT22;7517;48.400;11.770;2023-07-20T09:50:43;29.40;41.60
14850;DHT22;7517;48.400;11.770;2023-07-20T09:53:17;29.50;41.30
14850;DHT22;7517;48.400;11.770;2023-07-20T09:55:45;29.50;41.10
14850;DHT22;7517;48.400;11.770;2023-07-20T09:58:13;29.60;41.10
14850;DHT22;7517;48.400;11.770;2023-07-20T10:00:42;29.60;41.10
14850;DHT22;7517;48.400;11.770;2023-07-20T10:03:20;29.70;41.00
14850;DHT22;7517;48.400;11.770;2023-07-20T10:05:52;29.80;41.20
14850;DHT22;7517;48.400;11.770;2023-07-20T10:08:25;29.90;40.50
14850;DHT22;7517;48.400;11.770;2023-07-20T10:10:52;30.00;41.10
14850;DHT22;7517;48.400;11.770;2023-07-20T10:13:27;30.20;41.40
14850;DHT22;7517;48.400;11.770;2023-07-20T10:16:01;30.30;41.20
14850;DHT22;7517;48.400;11.770;2023-07-20T10:18:34;30.50;41.10
14850;DHT22;7517;48.400;11.770;2023-07-20T10:21:10;30.70;40.00
14850;DHT22;7517;48.400;11.770;2023-07-20T10:23:39;30.90;40.00
14850;DHT22;7517;48.400;11.770;2023-07-20T10:26:06;31.00;40.40
14850;DHT22;7517;48.400;11.770;2023-07-20T10:28:35;31.10;40.00
14850;DHT22;7517;48.400;11.770;2023-07-20T10:31:03;31.20;40.00
14850;DHT22;7517;48.400;11.770;2023-07-20T10:33:32;31.30;40.00
14850;DHT22;7517;48.400;11.770;2023-07-20T10:36:02;31.30;39.50
14850;DHT22;7517;48.400;11.770;2023-07-20T10:38:39;31.30;39.60
14850;DHT22;7517;48.400;11.770;2023-07-20T10:41:19;31.40;39.20
14850;DHT22;7517;48.400;11.770;2023-07-20T10:43:48;31.40;38.60
14850;DHT22;7517;48.400;11.770;2023-07-20T10:46:41;31.50;39.50
14850;DHT22;7517;48.400;11.770;2023-07-20T10:49:12;31.60;39.20
14850;DHT22;7517;48.400;11.770;2023-07-20T10:51:42;31.70;38.70
14850;DHT22;7517;48.400;11.770;2023-07-20T10:57:23;31.70;38.50
14850;DHT22;7517;48.400;11.770;2023-07-20T10:59:51;31.80;38.70
14850;DHT22;7517;48.400;11.770;2023-07-20T11:02:20;31.70;38.00
14850;DHT22;7517;48.400;11.770;2023-07-20T11:04:49;31.70;38.10
14850;DHT22;7517;48.400;11.770;2023-07-20T11:07:17;31.60;37.90
14850;DHT22;7517;48.400;11.770;2023-07-20T11:10:13;31.50;38.10
14850;DHT22;7517;48.400;11.770;2023-07-20T11:12:41;31.40;37.80
14850;DHT22;7517;48.400;11.770;2023-07-20T11:15:09;31.40;37.90
14850;DHT22;7517;48.400;11.770;2023-07-20T11:17:37;31.30;37.80
14850;DHT22;7517;48.400;11.770;2023-07-20T11:20:12;31.20;37.60
14850;DHT22;7517;48.400;11.770;2023-07-20T11:22:40;31.10;38.00
14850;DHT22;7517;48.400;11.770;2023-07-20T11:25:10;31.00;37.70
14850;DHT22;7517;48.400;11.770;2023-07-20T11:27:45;30.80;38.00
14850;DHT22;7517;48.400;11.770;2023-07-20T11:30:16;30.70;38.20
14850;DHT22;7517;48.400;11.770;2023-07-20T11:32:47;30.60;38.10
14850;DHT22;7517;48.400;11.770;2023-07-20T11:35:16;30.40;38.30
14850;DHT22;7517;48.400;11.770;2023-07-20T11:37:44;30.30;38.40
14850;DHT22;7517;48.400;11.770;2023-07-20T11:40:12;30.20;38.40
14850;DHT22;7517;48.400;11.770;2023-07-20T11:42:40;30.10;38.40
14850;DHT22;7517;48.400;11.770;2023-07-20T11:45:08;30.00;38.30
14850;DHT22;7517;48.400;11.770;2023-07-20T11:47:40;29.90;38.40
14850;DHT22;7517;48.400;11.770;2023-07-20T11:50:09;29.80;39.30
14850;DHT22;7517;48.400;11.770;2023-07-20T11:52:41;29.70;38.80
14850;DHT22;7517;48.400;11.770;2023-07-20T11:55:09;29.60;39.00
14850;DHT22;7517;48.400;11.770;2023-07-20T11:57:38;29.50;39.90
14850;DHT22;7517;48.400;11.770;2023-07-20T12:00:06;29.50;39.20
14850;DHT22;7517;48.400;11.770;2023-07-20T12:02:38;29.40;39.20
14850;DHT22;7517;48.400;11.770;2023-07-20T12:05:06;29.40;39.50
14850;DHT22;7517;48.400;11.770;2023-07-20T12:07:36;29.40;39.90
14850;DHT22;7517;48.400;11.770;2023-07-20T12:10:10;29.30;39.80
14850;DHT22;7517;48.400;11.770;2023-07-20T12:12:38;29.30;40.00
14850;DHT22;7517;48.400;11.770;2023-07-20T12:15:14;29.30;40.20
14850;DHT22;7517;48.400;11.770;2023-07-20T12:17:43;29.30;40.10
14850;DHT22;7517;48.400;11.770;2023-07-20T12:20:11;29.30;40.10
14850;DHT22;7517;48.400;11.770;2023-07-20T12:22:43;29.30;40.30
14850;DHT22;7517;48.400;11.770;2023-07-20T12:25:12;29.30;40.00
14850;DHT22;7517;48.400;11.770;2023-07-20T12:27:40;29.30;39.80
14850;DHT22;7517;48.400;11.770;2023-07-20T12:30:09;29.20;39.90
14850;DHT22;7517;48.400;11.770;2023-07-20T12:32:36;29.20;40.00
14850;DHT22;7517;48.400;11.770;2023-07-20T12:35:05;29.20;39.60
14850;DHT22;7517;48.400;11.770;2023-07-20T12:37:32;29.20;39.70
14850;DHT22;7517;48.400;11.770;2023-07-20T12:40:01;29.20;40.00
14850;DHT22;7517;48.400;11.770;2023-07-20T12:42:31;29.20;40.30
14850;DHT22;7517;48.400;11.770;2023-07-20T12:44:58;29.20;40.20
14850;DHT22;7517;48.400;11.770;2023-07-20T12:47:25;29.10;40.10
14850;DHT22;7517;48.400;11.770;2023-07-20T12:49:52;29.10;40.40
14850;DHT22;7517;48.400;11.770;2023-07-20T12:52:20;29.10;40.50
14850;DHT22;7517;48.400;11.770;2023-07-20T12:54:47;29.10;41.20
14850;DHT22;7517;48.400;11.770;2023-07-20T12:57:14;29.10;40.60
14850;DHT22;7517;48.400;11.770;2023-07-20T12:59:43;29.10;40.50
14850;DHT22;7517;48.400;11.770;2023-07-20T13:02:10;29.00;40.40
14850;DHT22;7517;48.400;11.770;2023-07-20T13:04:38;29.00;40.40
14850;DHT22;7517;48.400;11.770;2023-07-20T13:07:09;29.00;40.40
14850;DHT22;7517;48.400;11.770;2023-07-20T13:09:37;29.00;40.70
14850;DHT22;7517;48.400;11.770;2023-07-20T13:12:05;29.10;40.80
14850;DHT22;7517;48.400;11.770;2023-07-20T13:14:33;29.10;40.60
14850;DHT22;7517;48.400;11.770;2023-07-20T13:17:02;29.10;40.50
14850;DHT22;7517;48.400;11.770;2023-07-20T13:19:29;29.10;40.50
14850;DHT22;7517;48.400;11.770;2023-07-20T13:21:56;29.10;40.70
14850;DHT22;7517;48.400;11.770;2023-07-20T13:24:24;29.10;41.00
14850;DHT22;7517;48.400;11.770;2023-07-20T13:26:51;29.10;41.30
14850;DHT22;7517;48.400;11.770;2023-07-20T13:29:19;29.10;40.80
14850;DHT22;7517;48.400;11.770;2023-07-20T13:31:46;29.10;41.10
14850;DHT22;7517;48.400;11.770;2023-07-20T13:34:15;29.10;41.20
14850;DHT22;7517;48.400;11.770;2023-07-20T13:36:44;29.10;41.10
14850;DHT22;7517;48.400;11.770;2023-07-20T13:39:11;29.10;40.60
14850;DHT22;7517;48.400;11.770;2023-07-20T13:41:38;29.10;41.20
14850;DHT22;7517;48.400;11.770;2023-07-20T13:44:06;29.10;40.50
14850;DHT22;7517;48.400;11.770;2023-07-20T13:46:33;29.10;40.30
14850;DHT22;7517;48.400;11.770;2023-07-20T13:49:01;29.10;40.40
14850;DHT22;7517;48.400;11.770;2023-07-20T13:51:29;29.00;40.40
14850;DHT22;7517;48.400;11.770;2023-07-20T13:53:57;29.00;40.40
14850;DHT22;7517;48.400;11.770;2023-07-20T13:56:24;29.00;41.10
14850;DHT22;7517;48.400;11.770;2023-07-20T13:58:52;29.00;40.90
14850;DHT22;7517;48.400;11.770;2023-07-20T14:01:19;29.00;40.90
14850;DHT22;7517;48.400;11.770;2023-07-20T14:03:48;29.00;40.90
14850;DHT22;7517;48.400;11.770;2023-07-20T14:06:16;29.00;40.70
14850;DHT22;7517;48.400;11.770;2023-07-20T14:08:45;29.00;40.40
14850;DHT22;7517;48.400;11.770;2023-07-20T14:11:14;29.00;40.20
14850;DHT22;7517;48.400;11.770;2023-07-20T14:13:42;29.00;40.00
14850;DHT22;7517;48.400;11.770;2023-07-20T14:16:09;29.00;40.20
14850;DHT22;7517;48.400;11.770;2023-07-20T14:18:37;29.00;40.40
14850;DHT22;7517;48.400;11.770;2023-07-20T14:21:04;29.00;40.50
14850;DHT22;7517;48.400;11.770;2023-07-20T14:23:32;29.00;40.30
14850;DHT22;7517;48.400;11.770;2023-07-20T14:26:01;29.00;40.50
14850;DHT22;7517;48.400;11.770;2023-07-20T14:28:30;29.00;40.50
14850;DHT22;7517;48.400;11.770;2023-07-20T14:30:58;29.00;40.20
14850;DHT22;7517;48.400;11.770;2023-07-20T14:33:25;29.00;41.00
14850;DHT22;7517;48.400;11.770;2023-07-20T14:35:52;29.00;40.10
14850;DHT22;7517;48.400;11.770;2023-07-20T14:38:21;29.10;40.10
14850;DHT22;7517;48.400;11.770;2023-07-20T14:40:49;29.10;40.20
14850;DHT22;7517;48.400;11.770;2023-07-20T14:43:19;29.10;39.80
14850;DHT22;7517;48.400;11.770;2023-07-20T14:45:48;29.10;39.70
14850;DHT22;7517;48.400;11.770;2023-07-20T14:48:15;29.10;39.60
14850;DHT22;7517;48.400;11.770;2023-07-20T14:50:42;29.10;39.40
14850;DHT22;7517;48.400;11.770;2023-07-20T14:53:12;29.10;39.50
14850;DHT22;7517;48.400;11.770;2023-07-20T14:55:42;29.10;39.90
14850;DHT22;7517;48.400;11.770;2023-07-20T14:58:09;29.10;40.10
14850;DHT22;7517;48.400;11.770;2023-07-20T15:00:39;29.10;40.00
14850;DHT22;7517;48.400;11.770;2023-07-20T15:03:06;29.10;39.90
14850;DHT22;7517;48.400;11.770;2023-07-20T15:05:35;29.10;39.70
14850;DHT22;7517;48.400;11.770;2023-07-20T15:08:03;29.10;39.90
14850;DHT22;7517;48.400;11.770;2023-07-20T15:10:32;29.20;39.70
14850;DHT22;7517;48.400;11.770;2023-07-20T15:12:59;29.20;39.60
14850;DHT22;7517;48.400;11.770;2023-07-20T15:15:27;29.20;39.30
14850;DHT22;7517;48.400;11.770;2023-07-20T15:17:56;29.20;39.20
14850;DHT22;7517;48.400;11.770;2023-07-20T15:20:23;29.20;38.90
14850;DHT22;7517;48.400;11.770;2023-07-20T15:22:55;29.20;39.00
14850;DHT22;7517;48.400;11.770;2023-07-20T15:25:23;29.20;38.70
14850;DHT22;7517;48.400;11.770;2023-07-20T15:27:50;29.20;39.00
14850;DHT22;7517;48.400;11.770;2023-07-20T15:30:17;29.20;38.70
14850;DHT22;7517;48.400;11.770;2023-07-20T15:32:44;29.20;39.20
14850;DHT22;7517;48.400;11.770;2023-07-20T15:35:13;29.20;38.40
14850;DHT22;7517;48.400;11.770;2023-07-20T15:37:41;29.20;38.60
14850;DHT22;7517;48.400;11.770;2023-07-20T15:40:09;29.20;38.50
14850;DHT22;7517;48.400;11.770;2023-07-20T15:42:41;29.20;38.50
14850;DHT22;7517;48.400;11.770;2023-07-20T15:45:10;29.20;38.60